createdAt,value
2023-03-02T00:01:47.009Z,8.37
2023-03-02T00:04:21.816Z,8.20
2023-03-02T00:06:52.645Z,8.33
2023-03-02T00:09:20.838Z,8.83
2023-03-02T00:11:49.106Z,7.90
2023-03-02T00:14:17.187Z,8.50
2023-03-02T00:16:45.272Z,7.83
2023-03-02T00:19:13.320Z,8.23
2023-03-02T00:21:42.816Z,8.53
2023-03-02T00:24:11.026Z,8.73
2023-03-02T00:26:39.296Z,9.47
2023-03-02T00:29:07.389Z,8.33
2023-03-02T00:31:35.981Z,8.10
2023-03-02T00:34:04.077Z,8.13
2023-03-02T00:36:32.235Z,8.07
2023-03-02T00:39:01.700Z,7.77
2023-03-02T00:41:29.787Z,7.83
2023-03-02T00:43:58.055Z,7.87
2023-03-02T00:46:28.607Z,8.87
2023-03-02T00:48:56.841Z,8.90
2023-03-02T00:51:25.155Z,9.20
2023-03-02T00:53:53.243Z,8.90
2023-03-02T00:56:22.716Z,9.83
2023-03-02T00:58:53.205Z,8.83
2023-03-02T01:01:21.677Z,9.33
2023-03-02T01:03:53.451Z,10.73
2023-03-02T01:06:22.946Z,10.43
2023-03-02T01:08:51.085Z,9.67
2023-03-02T01:11:21.430Z,9.90
2023-03-02T01:13:51.439Z,10.77
2023-03-02T01:16:19.665Z,10.27
2023-03-02T01:18:47.774Z,9.70
2023-03-02T01:21:17.366Z,9.47
2023-03-02T01:23:45.527Z,11.23
2023-03-02T01:26:13.716Z,10.30
2023-03-02T01:28:41.779Z,10.57
2023-03-02T01:31:11.236Z,10.53
2023-03-02T01:33:39.316Z,10.20
2023-03-02T01:36:08.749Z,9.93
2023-03-02T01:38:36.929Z,10.60
2023-03-02T01:41:05.323Z,9.97
2023-03-02T01:43:33.556Z,9.43
2023-03-02T01:46:04.664Z,10.40
2023-03-02T01:48:52.732Z,9.40
2023-03-02T01:51:52.517Z,10.03
2023-03-02T01:54:24.396Z,8.37
2023-03-02T01:57:02.628Z,8.67
2023-03-02T01:59:34.019Z,10.10
2023-03-02T02:02:06.132Z,10.03
2023-03-02T02:04:37.806Z,9.33
2023-03-02T02:07:07.571Z,9.80
2023-03-02T02:09:38.322Z,8.97
2023-03-02T02:12:07.101Z,10.10
2023-03-02T02:14:35.435Z,10.10
2023-03-02T02:17:03.792Z,10.77
2023-03-02T02:19:57.703Z,11.37
2023-03-02T02:22:42.104Z,10.53
2023-03-02T02:25:19.665Z,11.70
2023-03-02T02:27:49.559Z,13.10
2023-03-02T02:30:19.552Z,12.53
2023-03-02T02:32:49.919Z,13.13
2023-03-02T02:35:22.570Z,13.20
2023-03-02T02:37:54.909Z,12.30
2023-03-02T02:40:39.575Z,12.63
2023-03-02T02:43:13.857Z,10.63
2023-03-02T02:45:42.414Z,12.43
2023-03-02T02:48:12.864Z,11.37
2023-03-02T02:50:41.041Z,10.70
2023-03-02T02:53:14.348Z,11.20
2023-03-02T02:55:44.133Z,12.53
2023-03-02T02:58:26.705Z,10.57
2023-03-02T03:00:56.413Z,11.53
2023-03-02T03:03:31.957Z,10.77
2023-03-02T03:06:05.763Z,11.30
2023-03-02T03:08:53.568Z,11.20
2023-03-02T03:11:28.917Z,11.60
2023-03-02T03:14:05.778Z,12.07
2023-03-02T03:16:35.140Z,11.53
2023-03-02T03:19:09.626Z,11.97
2023-03-02T03:21:37.762Z,12.27
2023-03-02T03:24:06.915Z,11.43
2023-03-02T03:26:35.343Z,11.37
2023-03-02T03:29:05.984Z,11.63
2023-03-02T03:31:34.709Z,11.70
2023-03-02T03:34:03.504Z,11.30
2023-03-02T03:36:35.748Z,10.83
2023-03-02T03:39:05.762Z,11.03
2023-03-02T03:41:34.735Z,11.03
2023-03-02T03:44:03.224Z,9.97
2023-03-02T03:46:36.022Z,11.13
2023-03-02T03:49:05.360Z,11.03
2023-03-02T03:51:35.494Z,10.70
2023-03-02T03:54:08.180Z,8.83
2023-03-02T03:56:45.040Z,9.47
2023-03-02T03:59:17.554Z,9.43
2023-03-02T04:01:54.598Z,9.57
2023-03-02T04:04:26.542Z,9.93
2023-03-02T04:06:55.789Z,10.03
2023-03-02T04:09:25.038Z,9.83
2023-03-02T04:11:56.698Z,10.13
2023-03-02T04:14:26.456Z,9.70
2023-03-02T04:16:57.900Z,9.97
2023-03-02T04:19:27.514Z,9.13
2023-03-02T04:21:59.067Z,10.20
2023-03-02T04:24:28.049Z,9.53
2023-03-02T04:26:58.139Z,10.07
2023-03-02T04:29:26.673Z,9.53
2023-03-02T04:31:55.237Z,9.90
2023-03-02T04:34:26.610Z,8.73
2023-03-02T04:36:55.662Z,9.43
2023-03-02T04:39:24.740Z,9.13
2023-03-02T04:41:54.810Z,8.73
2023-03-02T04:44:23.355Z,9.20
2023-03-02T04:46:51.885Z,8.67
2023-03-02T04:49:21.205Z,9.13
2023-03-02T04:51:51.738Z,9.23
2023-03-02T04:54:22.762Z,10.40
2023-03-02T04:56:51.768Z,10.63
2023-03-02T04:59:22.559Z,11.20
2023-03-02T05:01:51.249Z,11.17
2023-03-02T05:04:19.782Z,10.77
2023-03-02T05:06:48.302Z,10.20
2023-03-02T05:09:18.407Z,9.60
2023-03-02T05:11:46.710Z,10.67
2023-03-02T05:14:14.921Z,9.23
2023-03-02T05:16:43.372Z,9.70
2023-03-02T05:19:13.386Z,8.50
2023-03-02T05:21:42.044Z,10.67
2023-03-02T05:24:10.269Z,9.67
2023-03-02T05:26:39.992Z,9.43
2023-03-02T05:29:08.576Z,9.37
2023-03-02T05:31:39.691Z,9.67
2023-03-02T05:34:10.230Z,9.83
2023-03-02T05:36:38.717Z,8.87
2023-03-02T05:39:07.905Z,9.90
2023-03-02T05:41:37.727Z,9.53
2023-03-02T05:44:09.554Z,8.63
2023-03-02T05:46:37.951Z,9.10
2023-03-02T05:49:06.243Z,9.37
2023-03-02T05:51:34.404Z,9.57
2023-03-02T05:54:02.497Z,8.80
2023-03-02T05:56:30.962Z,9.23
2023-03-02T05:58:59.224Z,8.77
2023-03-02T06:01:28.901Z,8.83
2023-03-02T06:03:57.461Z,9.57
2023-03-02T06:06:25.706Z,8.30
2023-03-02T06:08:53.972Z,9.13
2023-03-02T06:11:22.088Z,9.30
2023-03-02T06:13:50.487Z,9.50
2023-03-02T06:16:18.665Z,9.20
2023-03-02T06:18:48.204Z,8.77
2023-03-02T06:21:16.556Z,8.60
2023-03-02T06:23:44.682Z,10.17
2023-03-02T06:26:13.978Z,9.30
2023-03-02T06:28:52.114Z,10.27
2023-03-02T06:31:21.970Z,10.67
2023-03-02T06:33:51.545Z,10.47
2023-03-02T06:36:20.256Z,9.43
2023-03-02T06:38:48.405Z,8.63
2023-03-02T06:41:17.151Z,9.70
2023-03-02T06:43:45.413Z,10.23
2023-03-02T06:46:13.696Z,9.73
2023-03-02T06:48:41.888Z,10.33
2023-03-02T06:51:12.756Z,8.73
2023-03-02T06:53:40.870Z,9.40
2023-03-02T06:56:09.384Z,10.33
2023-03-02T06:58:38.309Z,10.10
2023-03-02T07:01:07.914Z,9.27
2023-03-02T07:03:37.019Z,10.97
2023-03-02T07:06:05.589Z,9.60
2023-03-02T07:08:36.077Z,10.20
2023-03-02T07:11:06.988Z,9.60
2023-03-02T07:13:35.165Z,10.23
2023-03-02T07:16:07.757Z,11.33
2023-03-02T07:18:35.862Z,10.30
2023-03-02T07:21:04.282Z,9.77
2023-03-02T07:23:34.586Z,9.67
2023-03-02T07:26:02.722Z,9.37
2023-03-02T07:28:30.857Z,8.47
2023-03-02T07:30:59.006Z,8.60
2023-03-02T07:33:27.165Z,8.17
2023-03-02T07:35:55.241Z,9.00
2023-03-02T07:38:23.405Z,7.17
2023-03-02T07:40:53.065Z,8.47
2023-03-02T07:43:21.510Z,8.50
2023-03-02T07:45:49.627Z,9.30
2023-03-02T07:48:18.199Z,8.70
2023-03-02T07:50:46.311Z,9.47
2023-03-02T07:53:15.720Z,9.53
2023-03-02T07:55:43.917Z,9.33
2023-03-02T07:58:13.464Z,9.43
2023-03-02T08:00:42.751Z,9.37
2023-03-02T08:03:11.019Z,8.73
2023-03-02T08:05:39.307Z,7.93
2023-03-02T08:08:07.592Z,10.33
2023-03-02T08:10:36.481Z,10.13
2023-03-02T08:13:04.922Z,9.70
2023-03-02T08:15:34.460Z,8.53
2023-03-02T08:18:02.703Z,8.57
2023-03-02T08:20:30.857Z,8.93
2023-03-02T08:22:59.049Z,9.53
2023-03-02T08:25:29.500Z,9.50
2023-03-02T08:27:57.663Z,8.97
2023-03-02T08:30:25.857Z,8.80
2023-03-02T08:32:55.408Z,7.83
2023-03-02T08:35:23.656Z,9.17
2023-03-02T08:37:51.877Z,8.73
2023-03-02T08:40:20.218Z,9.00
2023-03-02T08:42:49.920Z,9.13
2023-03-02T08:45:19.592Z,8.97
2023-03-02T08:47:47.754Z,8.53
2023-03-02T08:50:17.312Z,8.83
2023-03-02T08:52:45.424Z,8.57
2023-03-02T08:55:14.059Z,8.83
2023-03-02T08:57:42.666Z,9.17
2023-03-02T09:00:14.877Z,8.83
2023-03-02T09:02:43.391Z,9.37
2023-03-02T09:05:12.315Z,9.43
2023-03-02T09:07:42.054Z,9.53
2023-03-02T09:10:11.210Z,9.07
2023-03-02T09:12:39.407Z,9.03
2023-03-02T09:15:08.513Z,10.30
2023-03-02T09:17:36.722Z,9.93
2023-03-02T09:20:05.470Z,9.37
2023-03-02T09:22:36.019Z,9.93
2023-03-02T09:25:07.104Z,10.30
2023-03-02T09:27:35.286Z,10.03
2023-03-02T09:30:03.465Z,10.17
2023-03-02T09:32:32.099Z,10.17
2023-03-02T09:35:00.515Z,9.47
2023-03-02T09:37:29.338Z,10.30
2023-03-02T09:39:57.524Z,9.57
2023-03-02T09:42:55.641Z,9.67
2023-03-02T09:45:37.112Z,10.63
2023-03-02T09:48:15.993Z,9.77
2023-03-02T09:50:54.760Z,8.83
2023-03-02T09:53:36.117Z,9.53
2023-03-02T09:56:04.889Z,10.00
2023-03-02T09:58:39.354Z,9.83
2023-03-02T10:01:16.613Z,8.40
2023-03-02T10:03:52.838Z,8.40
2023-03-02T10:06:21.057Z,7.50
2023-03-02T10:08:50.897Z,7.73
2023-03-02T10:11:25.572Z,8.07
2023-03-02T10:13:59.785Z,7.43
2023-03-02T10:16:34.668Z,8.77
2023-03-02T10:19:09.980Z,8.23
2023-03-02T10:21:41.358Z,8.90
2023-03-02T10:24:18.917Z,9.40
2023-03-02T10:26:51.661Z,8.60
2023-03-02T10:29:34.991Z,9.70
2023-03-02T10:32:14.481Z,8.00
2023-03-02T10:34:42.660Z,7.40
2023-03-02T10:37:14.803Z,7.07
2023-03-02T10:39:43.013Z,7.90
2023-03-02T10:42:17.802Z,7.27
2023-03-02T10:44:51.602Z,7.10
2023-03-02T10:47:25.671Z,6.57
2023-03-02T10:49:54.920Z,7.70
2023-03-02T10:52:24.673Z,8.13
2023-03-02T10:55:04.445Z,7.70
2023-03-02T10:57:37.970Z,6.73
2023-03-02T11:00:17.901Z,7.07
2023-03-02T11:02:54.699Z,7.80
2023-03-02T11:05:32.478Z,7.13
2023-03-02T11:08:02.662Z,7.47
2023-03-02T11:10:32.805Z,7.40
2023-03-02T11:13:02.590Z,7.83
2023-03-02T11:15:38.219Z,6.77
2023-03-02T11:18:22.164Z,6.53
2023-03-02T11:20:54.036Z,6.40
2023-03-02T11:23:33.782Z,5.47
2023-03-02T11:26:08.781Z,5.80
2023-03-02T11:28:45.656Z,6.60
2023-03-02T11:31:22.944Z,6.73
2023-03-02T11:34:23.399Z,5.40
2023-03-02T11:37:00.123Z,6.27
2023-03-02T11:39:46.548Z,6.70
2023-03-02T11:42:25.708Z,5.83
2023-03-02T11:44:53.913Z,6.17
2023-03-02T11:47:24.389Z,6.40
2023-03-02T11:49:56.890Z,6.23
2023-03-02T11:52:29.889Z,6.37
2023-03-02T11:55:01.418Z,7.00
2023-03-02T11:57:34.504Z,7.80
2023-03-02T12:00:04.571Z,6.47
2023-03-02T12:02:41.973Z,6.97
2023-03-02T12:05:25.822Z,6.43
2023-03-02T12:08:02.540Z,7.33
2023-03-02T12:10:35.911Z,6.03
2023-03-02T12:13:14.972Z,6.47
2023-03-02T12:15:45.432Z,6.00
2023-03-02T12:18:55.387Z,6.57
2023-03-02T12:21:25.757Z,5.30
2023-03-02T12:24:04.144Z,7.13
2023-03-02T12:26:36.198Z,6.23
2023-03-02T12:29:08.052Z,5.73
2023-03-02T12:31:48.197Z,6.43
2023-03-02T12:34:37.338Z,5.80
2023-03-02T12:37:14.045Z,6.40
2023-03-02T12:40:04.200Z,6.57
2023-03-02T12:42:51.473Z,6.73
2023-03-02T12:45:33.234Z,5.93
2023-03-02T12:48:06.159Z,5.87
2023-03-02T12:50:40.899Z,6.20
2023-03-02T12:53:18.431Z,5.90
2023-03-02T12:55:46.657Z,6.33
2023-03-02T12:58:19.681Z,6.30
2023-03-02T13:00:53.430Z,6.17
2023-03-02T13:03:21.662Z,6.13
2023-03-02T13:05:51.960Z,6.47
2023-03-02T13:08:24.382Z,6.17
2023-03-02T13:10:54.598Z,5.93
2023-03-02T13:13:26.081Z,6.60
2023-03-02T13:15:57.368Z,7.13
2023-03-02T13:18:27.487Z,6.83
2023-03-02T13:20:57.143Z,6.37
2023-03-02T13:23:27.329Z,6.40
2023-03-02T13:25:57.844Z,7.00
2023-03-02T13:28:28.735Z,6.40
2023-03-02T13:31:02.045Z,6.00
2023-03-02T13:33:31.752Z,5.63
2023-03-02T13:36:01.796Z,5.73
2023-03-02T13:38:35.207Z,5.80
2023-03-02T13:41:04.051Z,5.70
2023-03-02T13:43:38.887Z,5.67
2023-03-02T13:46:25.886Z,6.00
2023-03-02T13:49:13.951Z,5.97
2023-03-02T13:51:45.660Z,6.30
2023-03-02T13:54:21.930Z,6.33
2023-03-02T13:56:52.311Z,6.27
2023-03-02T13:59:22.729Z,7.17
2023-03-02T14:01:51.290Z,6.50
2023-03-02T14:04:21.740Z,6.27
2023-03-02T14:06:52.384Z,6.50
2023-03-02T14:09:21.086Z,6.67
2023-03-02T14:11:53.108Z,7.23
2023-03-02T14:14:23.742Z,7.00
2023-03-02T14:16:52.270Z,6.23
2023-03-02T14:19:20.713Z,6.40
2023-03-02T14:21:48.859Z,6.40
2023-03-02T14:24:18.379Z,5.93
2023-03-02T14:26:48.763Z,5.67
2023-03-02T14:29:23.351Z,6.37
2023-03-02T14:31:51.659Z,6.77
2023-03-02T14:34:19.925Z,6.97
2023-03-02T14:36:51.041Z,6.47
2023-03-02T14:39:23.999Z,6.03
2023-03-02T14:41:54.750Z,6.17
2023-03-02T14:44:23.633Z,6.57
2023-03-02T14:46:53.087Z,5.77
2023-03-02T14:49:21.230Z,6.27
2023-03-02T14:52:01.656Z,6.57
2023-03-02T14:54:39.586Z,6.20
2023-03-02T14:57:17.833Z,6.30
2023-03-02T14:59:45.993Z,6.20
2023-03-02T15:02:24.705Z,6.57
2023-03-02T15:04:56.569Z,6.77
2023-03-02T15:07:26.482Z,6.47
2023-03-02T15:09:56.311Z,7.30
2023-03-02T15:12:25.162Z,6.50
2023-03-02T15:14:53.339Z,6.40
2023-03-02T15:17:21.677Z,6.40
2023-03-02T15:19:49.769Z,6.13
2023-03-02T15:22:17.952Z,6.53
2023-03-02T15:24:46.056Z,7.07
2023-03-02T15:27:15.692Z,5.63
2023-03-02T15:29:45.126Z,6.40
2023-03-02T15:32:13.897Z,6.10
2023-03-02T15:34:42.248Z,6.80
2023-03-02T15:37:11.535Z,6.67
2023-03-02T15:39:39.738Z,6.07
2023-03-02T15:42:08.184Z,6.10
2023-03-02T15:44:37.663Z,5.57
2023-03-02T15:47:05.985Z,6.07
2023-03-02T15:49:34.097Z,6.40
2023-03-02T15:52:02.421Z,5.53
2023-03-02T15:54:30.848Z,5.87
2023-03-02T15:56:59.030Z,6.57
2023-03-02T15:59:28.863Z,6.33
2023-03-02T16:01:59.791Z,7.37
2023-03-02T16:04:28.475Z,7.83
2023-03-02T16:06:57.073Z,7.60
2023-03-02T16:09:26.687Z,8.47
2023-03-02T16:11:56.200Z,11.90
2023-03-02T16:14:25.067Z,9.73
2023-03-02T16:16:53.724Z,8.97
2023-03-02T16:19:23.709Z,9.83
2023-03-02T16:21:51.853Z,10.30
2023-03-02T16:24:20.015Z,8.67
2023-03-02T16:26:48.974Z,8.33
2023-03-02T16:29:17.127Z,8.10
2023-03-02T16:31:47.746Z,7.07
2023-03-02T16:34:16.834Z,7.23
2023-03-02T16:36:47.166Z,6.90
2023-03-02T16:39:16.472Z,6.63
2023-03-02T16:41:46.323Z,6.73
2023-03-02T16:44:16.221Z,7.13
2023-03-02T16:46:45.349Z,6.83
2023-03-02T16:49:14.882Z,7.40
2023-03-02T16:51:44.375Z,7.20
2023-03-02T16:54:17.830Z,7.90
2023-03-02T16:56:47.607Z,8.83
2023-03-02T16:59:16.030Z,8.33
2023-03-02T17:01:44.544Z,7.10
2023-03-02T17:04:12.887Z,7.10
2023-03-02T17:06:59.720Z,6.73
2023-03-02T17:09:30.421Z,6.47
2023-03-02T17:11:59.804Z,7.37
2023-03-02T17:14:29.155Z,7.67
2023-03-02T17:16:57.931Z,7.77
2023-03-02T17:19:29.700Z,8.50
2023-03-02T17:21:59.470Z,9.10
2023-03-02T17:24:29.704Z,8.10
2023-03-02T17:26:58.196Z,5.03
2023-03-02T17:29:27.421Z,6.97
2023-03-02T17:31:57.112Z,8.10
2023-03-02T17:34:30.757Z,9.33
2023-03-02T17:37:00.451Z,9.03
2023-03-02T17:39:30.810Z,9.57
2023-03-02T17:41:59.905Z,10.50
2023-03-02T17:44:29.575Z,9.47
2023-03-02T17:46:58.792Z,10.17
2023-03-02T17:49:27.644Z,9.63
2023-03-02T17:51:57.491Z,8.93
2023-03-02T17:54:27.370Z,6.93
2023-03-02T17:56:57.595Z,8.27
2023-03-02T17:59:26.456Z,7.93
2023-03-02T18:01:55.405Z,8.13
2023-03-02T18:04:25.351Z,7.33
2023-03-02T18:06:54.173Z,6.47
2023-03-02T18:09:23.064Z,6.77
2023-03-02T18:11:52.408Z,7.17
2023-03-02T18:14:23.143Z,7.97
2023-03-02T18:16:53.052Z,7.97
2023-03-02T18:19:21.898Z,8.13
2023-03-02T18:21:51.206Z,8.77
2023-03-02T18:24:19.863Z,9.67
2023-03-02T18:26:48.987Z,9.73
2023-03-02T18:29:17.833Z,9.07
2023-03-02T18:31:49.534Z,10.20
2023-03-02T18:34:20.039Z,10.70
2023-03-02T18:36:50.210Z,12.00
2023-03-02T18:42:03.611Z,11.40
2023-03-02T18:44:33.712Z,9.80
2023-03-02T18:47:05.467Z,9.43
2023-03-02T18:49:34.936Z,9.37
2023-03-02T18:52:07.077Z,9.47
2023-03-02T18:54:36.762Z,9.30
2023-03-02T18:57:07.881Z,8.23
2023-03-02T18:59:38.150Z,9.17
2023-03-02T19:02:10.592Z,9.23
2023-03-02T19:04:40.904Z,8.03
2023-03-02T19:07:10.423Z,9.60
2023-03-02T19:09:39.567Z,8.53
2023-03-02T19:12:09.166Z,9.43
2023-03-02T19:14:38.384Z,9.70
2023-03-02T19:17:09.458Z,8.67
2023-03-02T19:19:43.520Z,9.80
2023-03-02T19:22:13.414Z,8.93
2023-03-02T19:24:44.870Z,9.13
2023-03-02T19:27:16.640Z,8.07
2023-03-02T19:29:46.700Z,8.53
2023-03-02T19:32:17.997Z,8.53
2023-03-02T19:34:47.561Z,7.70
2023-03-02T19:37:17.104Z,8.80
2023-03-02T19:39:47.202Z,8.57
2023-03-02T19:42:18.477Z,9.13
2023-03-02T19:44:48.100Z,8.80
2023-03-02T19:47:19.377Z,9.07
2023-03-02T19:49:49.494Z,8.53
2023-03-02T19:52:22.799Z,9.27
2023-03-02T19:54:52.447Z,7.87
2023-03-02T19:57:22.988Z,8.50
2023-03-02T19:59:52.828Z,9.10
2023-03-02T20:02:24.689Z,7.53
2023-03-02T20:04:54.280Z,8.67
2023-03-02T20:07:23.718Z,7.57
2023-03-02T20:09:53.466Z,8.13
2023-03-02T20:12:23.434Z,8.83
2023-03-02T20:14:54.748Z,7.37
2023-03-02T20:17:28.109Z,8.53
2023-03-02T20:19:59.205Z,8.30
2023-03-02T20:22:28.584Z,8.77
2023-03-02T20:25:00.153Z,9.57
2023-03-02T20:27:30.011Z,8.03
2023-03-02T20:30:00.038Z,9.00
2023-03-02T20:32:30.929Z,7.97
2023-03-02T20:35:00.164Z,8.23
2023-03-02T20:37:32.813Z,10.27
2023-03-02T20:40:04.204Z,9.80
2023-03-02T20:42:36.593Z,9.90
2023-03-02T20:45:07.168Z,9.87
2023-03-02T20:47:38.993Z,9.77
2023-03-02T20:50:21.479Z,10.03
2023-03-02T20:52:55.450Z,9.63
2023-03-02T20:55:24.903Z,10.40
2023-03-02T20:57:56.854Z,11.43
2023-03-02T21:00:28.672Z,11.03
2023-03-02T21:03:00.885Z,11.57
2023-03-02T21:05:33.131Z,11.63
2023-03-02T21:08:02.989Z,11.30
2023-03-02T21:10:37.519Z,11.20
2023-03-02T21:13:08.206Z,11.67
2023-03-02T21:15:37.591Z,10.97
2023-03-02T21:18:07.688Z,11.17
2023-03-02T21:20:37.725Z,10.03
2023-03-02T21:23:07.376Z,10.20
2023-03-02T21:25:36.243Z,9.60
2023-03-02T21:28:05.415Z,9.03
2023-03-02T21:30:38.232Z,9.67
2023-03-02T21:33:08.009Z,9.23
2023-03-02T21:35:37.645Z,9.67
2023-03-02T21:38:07.647Z,9.80
2023-03-02T21:40:40.669Z,9.33
2023-03-02T21:43:09.849Z,11.20
2023-03-02T21:45:38.686Z,10.87
2023-03-02T21:48:09.668Z,11.47
2023-03-02T21:50:39.533Z,11.63
2023-03-02T21:53:08.587Z,10.73
2023-03-02T21:55:38.501Z,11.57
2023-03-02T21:58:07.286Z,12.57
2023-03-02T22:00:38.657Z,12.77
2023-03-02T22:03:08.641Z,11.63
2023-03-02T22:05:36.898Z,11.17
2023-03-02T22:08:05.179Z,10.20
2023-03-02T22:13:23.949Z,9.53
2023-03-02T22:15:59.008Z,9.30
2023-03-02T22:18:28.058Z,9.17
2023-03-02T22:20:56.136Z,9.97
2023-03-02T22:23:26.258Z,9.67
2023-03-02T22:25:56.128Z,9.07
2023-03-02T22:28:27.521Z,8.40
2023-03-02T22:31:00.112Z,8.77
2023-03-02T22:33:29.774Z,9.53
2023-03-02T22:36:03.862Z,9.47
2023-03-02T22:38:32.536Z,10.27
2023-03-02T22:41:00.752Z,10.23
2023-03-02T22:43:33.148Z,11.57
2023-03-02T22:46:13.542Z,11.97
2023-03-02T22:48:44.081Z,11.97
2023-03-02T22:51:16.634Z,12.20
2023-03-02T22:53:50.138Z,11.73
2023-03-02T22:56:28.400Z,12.53
2023-03-02T22:58:59.810Z,12.30
2023-03-02T23:01:30.130Z,12.93
2023-03-02T23:04:04.263Z,11.73
2023-03-02T23:06:33.990Z,12.23
2023-03-02T23:09:07.622Z,12.37
2023-03-02T23:11:38.790Z,12.00
2023-03-02T23:14:19.150Z,11.67
2023-03-02T23:16:53.187Z,11.40
2023-03-02T23:19:21.813Z,10.80
2023-03-02T23:21:50.787Z,11.43
2023-03-02T23:24:22.044Z,10.03
2023-03-02T23:26:51.623Z,10.63
2023-03-02T23:29:22.100Z,10.17
2023-03-02T23:31:50.722Z,11.17
2023-03-02T23:34:18.880Z,10.97
2023-03-02T23:36:46.999Z,11.00
2023-03-02T23:39:15.366Z,10.73
2023-03-02T23:41:43.651Z,10.53
2023-03-02T23:44:11.758Z,10.07
2023-03-02T23:46:41.212Z,9.83
2023-03-02T23:49:09.389Z,10.23
2023-03-02T23:51:37.537Z,10.00
2023-03-02T23:54:06.011Z,9.90
2023-03-02T23:56:34.226Z,10.27
2023-03-02T23:59:02.311Z,10.13
